sensor_id;sensor_type;location;lat;lon;timestamp;P1;durP1;ratioP1;P2;durP2;ratioP2
9898;SDS011;4988;49.238;6.698;2023-02-15T00:01:09;46.67;;;19.57;;
9898;SDS011;4988;49.238;6.698;2023-02-15T00:03:36;44.17;;;19.43;;
9898;SDS011;4988;49.238;6.698;2023-02-15T00:06:02;45.23;;;19.23;;
9898;SDS011;4988;49.238;6.698;2023-02-15T00:08:28;52.50;;;20.40;;
9898;SDS011;4988;49.238;6.698;2023-02-15T00:10:53;44.90;;;19.23;;
9898;SDS011;4988;49.238;6.698;2023-02-15T00:13:28;47.43;;;19.67;;
9898;SDS011;4988;49.238;6.698;2023-02-15T00:15:53;49.07;;;20.03;;
9898;SDS011;4988;49.238;6.698;2023-02-15T00:18:19;51.43;;;19.23;;
9898;SDS011;4988;49.238;6.698;2023-02-15T00:20:44;54.10;;;20.47;;
9898;SDS011;4988;49.238;6.698;2023-02-15T00:23:09;55.20;;;19.60;;
9898;SDS011;4988;49.238;6.698;2023-02-15T00:25:34;52.83;;;19.03;;
9898;SDS011;4988;49.238;6.698;2023-02-15T00:28:00;78.43;;;19.60;;
9898;SDS011;4988;49.238;6.698;2023-02-15T00:30:25;87.07;;;18.73;;
9898;SDS011;4988;49.238;6.698;2023-02-15T00:32:50;64.77;;;18.40;;
9898;SDS011;4988;49.238;6.698;2023-02-15T00:35:16;86.13;;;19.03;;
9898;SDS011;4988;49.238;6.698;2023-02-15T00:37:41;77.17;;;18.90;;
9898;SDS011;4988;49.238;6.698;2023-02-15T00:40:06;95.87;;;20.93;;
9898;SDS011;4988;49.238;6.698;2023-02-15T00:42:32;59.77;;;20.10;;
9898;SDS011;4988;49.238;6.698;2023-02-15T00:44:57;61.27;;;19.73;;
9898;SDS011;4988;49.238;6.698;2023-02-15T00:47:23;63.50;;;20.07;;
9898;SDS011;4988;49.238;6.698;2023-02-15T00:49:50;64.80;;;20.05;;
9898;SDS011;4988;49.238;6.698;2023-02-15T00:52:15;58.13;;;20.03;;
9898;SDS011;4988;49.238;6.698;2023-02-15T00:54:40;61.53;;;19.93;;
9898;SDS011;4988;49.238;6.698;2023-02-15T00:57:06;89.20;;;21.93;;
9898;SDS011;4988;49.238;6.698;2023-02-15T00:59:31;80.40;;;21.03;;
9898;SDS011;4988;49.238;6.698;2023-02-15T01:01:56;80.97;;;22.80;;
9898;SDS011;4988;49.238;6.698;2023-02-15T01:04:22;62.97;;;21.50;;
9898;SDS011;4988;49.238;6.698;2023-02-15T01:06:47;64.53;;;20.57;;
9898;SDS011;4988;49.238;6.698;2023-02-15T01:09:12;59.53;;;20.13;;
9898;SDS011;4988;49.238;6.698;2023-02-15T01:11:38;86.03;;;22.33;;
9898;SDS011;4988;49.238;6.698;2023-02-15T01:14:04;80.67;;;21.37;;
9898;SDS011;4988;49.238;6.698;2023-02-15T01:16:30;69.60;;;22.17;;
9898;SDS011;4988;49.238;6.698;2023-02-15T01:18:56;64.03;;;21.43;;
9898;SDS011;4988;49.238;6.698;2023-02-15T01:21:22;72.80;;;21.00;;
9898;SDS011;4988;49.238;6.698;2023-02-15T01:23:51;78.25;;;21.48;;
9898;SDS011;4988;49.238;6.698;2023-02-15T01:26:17;59.67;;;20.47;;
9898;SDS011;4988;49.238;6.698;2023-02-15T01:28:43;64.67;;;21.57;;
9898;SDS011;4988;49.238;6.698;2023-02-15T01:31:10;118.63;;;22.37;;
9898;SDS011;4988;49.238;6.698;2023-02-15T01:33:37;73.00;;;21.43;;
9898;SDS011;4988;49.238;6.698;2023-02-15T01:36:03;66.17;;;19.90;;
9898;SDS011;4988;49.238;6.698;2023-02-15T01:38:29;61.88;;;20.88;;
9898;SDS011;4988;49.238;6.698;2023-02-15T01:40:55;52.30;;;19.93;;
9898;SDS011;4988;49.238;6.698;2023-02-15T01:43:44;78.28;;;21.88;;
9898;SDS011;4988;49.238;6.698;2023-02-15T01:46:14;84.07;;;21.17;;
9898;SDS011;4988;49.238;6.698;2023-02-15T01:48:43;92.17;;;21.30;;
9898;SDS011;4988;49.238;6.698;2023-02-15T01:51:11;71.00;;;23.87;;
9898;SDS011;4988;49.238;6.698;2023-02-15T01:53:43;67.57;;;22.05;;
9898;SDS011;4988;49.238;6.698;2023-02-15T01:56:20;62.87;;;22.53;;
9898;SDS011;4988;49.238;6.698;2023-02-15T01:58:49;67.60;;;21.83;;
9898;SDS011;4988;49.238;6.698;2023-02-15T02:01:15;69.63;;;22.40;;
9898;SDS011;4988;49.238;6.698;2023-02-15T02:03:44;83.77;;;22.93;;
9898;SDS011;4988;49.238;6.698;2023-02-15T02:06:27;71.83;;;23.00;;
9898;SDS011;4988;49.238;6.698;2023-02-15T02:08:53;70.13;;;22.67;;
9898;SDS011;4988;49.238;6.698;2023-02-15T02:11:19;66.20;;;22.87;;
9898;SDS011;4988;49.238;6.698;2023-02-15T02:13:45;85.50;;;23.87;;
9898;SDS011;4988;49.238;6.698;2023-02-15T02:16:16;74.73;;;23.83;;
9898;SDS011;4988;49.238;6.698;2023-02-15T02:21:40;67.23;;;23.60;;
9898;SDS011;4988;49.238;6.698;2023-02-15T02:27:12;63.83;;;22.53;;
9898;SDS011;4988;49.238;6.698;2023-02-15T02:33:08;75.53;;;24.10;;
9898;SDS011;4988;49.238;6.698;2023-02-15T02:35:53;61.27;;;23.70;;
9898;SDS011;4988;49.238;6.698;2023-02-15T02:41:30;73.93;;;23.52;;
9898;SDS011;4988;49.238;6.698;2023-02-15T02:46:54;64.80;;;24.37;;
9898;SDS011;4988;49.238;6.698;2023-02-15T02:49:30;68.40;;;23.50;;
9898;SDS011;4988;49.238;6.698;2023-02-15T02:51:58;66.67;;;23.77;;
9898;SDS011;4988;49.238;6.698;2023-02-15T02:54:28;72.43;;;24.03;;
9898;SDS011;4988;49.238;6.698;2023-02-15T02:56:56;63.97;;;23.63;;
9898;SDS011;4988;49.238;6.698;2023-02-15T02:59:28;70.57;;;23.57;;
9898;SDS011;4988;49.238;6.698;2023-02-15T03:02:05;70.90;;;23.80;;
9898;SDS011;4988;49.238;6.698;2023-02-15T03:04:38;64.57;;;22.63;;
9898;SDS011;4988;49.238;6.698;2023-02-15T03:07:10;58.63;;;20.97;;
9898;SDS011;4988;49.238;6.698;2023-02-15T03:09:41;60.37;;;24.17;;
9898;SDS011;4988;49.238;6.698;2023-02-15T03:12:11;55.70;;;20.53;;
9898;SDS011;4988;49.238;6.698;2023-02-15T03:14:40;60.60;;;22.55;;
9898;SDS011;4988;49.238;6.698;2023-02-15T03:17:08;55.70;;;21.87;;
9898;SDS011;4988;49.238;6.698;2023-02-15T03:19:36;54.43;;;21.47;;
9898;SDS011;4988;49.238;6.698;2023-02-15T03:22:07;58.77;;;21.23;;
9898;SDS011;4988;49.238;6.698;2023-02-15T03:24:39;66.47;;;22.57;;
9898;SDS011;4988;49.238;6.698;2023-02-15T03:27:07;57.43;;;21.00;;
9898;SDS011;4988;49.238;6.698;2023-02-15T03:29:42;60.70;;;21.40;;
9898;SDS011;4988;49.238;6.698;2023-02-15T03:32:09;59.53;;;21.07;;
9898;SDS011;4988;49.238;6.698;2023-02-15T03:34:37;54.22;;;20.23;;
9898;SDS011;4988;49.238;6.698;2023-02-15T03:39:54;51.37;;;19.43;;
9898;SDS011;4988;49.238;6.698;2023-02-15T03:42:43;51.90;;;19.90;;
9898;SDS011;4988;49.238;6.698;2023-02-15T03:45:12;53.10;;;19.70;;
9898;SDS011;4988;49.238;6.698;2023-02-15T03:47:47;57.75;;;21.00;;
9898;SDS011;4988;49.238;6.698;2023-02-15T03:50:21;50.33;;;18.03;;
9898;SDS011;4988;49.238;6.698;2023-02-15T03:53:09;52.43;;;20.00;;
9898;SDS011;4988;49.238;6.698;2023-02-15T03:55:38;45.40;;;18.38;;
9898;SDS011;4988;49.238;6.698;2023-02-15T03:58:03;55.53;;;20.20;;
9898;SDS011;4988;49.238;6.698;2023-02-15T04:00:53;58.17;;;21.27;;
9898;SDS011;4988;49.238;6.698;2023-02-15T04:03:43;54.97;;;19.65;;
9898;SDS011;4988;49.238;6.698;2023-02-15T04:06:14;49.73;;;18.60;;
9898;SDS011;4988;49.238;6.698;2023-02-15T04:08:39;46.77;;;18.70;;
9898;SDS011;4988;49.238;6.698;2023-02-15T04:11:23;46.13;;;18.20;;
9898;SDS011;4988;49.238;6.698;2023-02-15T04:13:48;45.40;;;18.60;;
9898;SDS011;4988;49.238;6.698;2023-02-15T04:16:21;45.37;;;18.13;;
9898;SDS011;4988;49.238;6.698;2023-02-15T04:18:47;43.03;;;17.67;;
9898;SDS011;4988;49.238;6.698;2023-02-15T04:21:30;40.37;;;17.03;;
9898;SDS011;4988;49.238;6.698;2023-02-15T04:24:15;43.87;;;17.43;;
9898;SDS011;4988;49.238;6.698;2023-02-15T04:26:59;42.37;;;17.37;;
9898;SDS011;4988;49.238;6.698;2023-02-15T04:29:25;44.43;;;17.33;;
9898;SDS011;4988;49.238;6.698;2023-02-15T04:31:54;46.57;;;17.47;;
9898;SDS011;4988;49.238;6.698;2023-02-15T04:34:21;45.17;;;18.75;;
9898;SDS011;4988;49.238;6.698;2023-02-15T04:36:47;39.93;;;16.80;;
9898;SDS011;4988;49.238;6.698;2023-02-15T04:39:13;45.87;;;17.90;;
9898;SDS011;4988;49.238;6.698;2023-02-15T04:41:39;42.30;;;16.87;;
9898;SDS011;4988;49.238;6.698;2023-02-15T04:44:05;43.27;;;17.57;;
9898;SDS011;4988;49.238;6.698;2023-02-15T04:46:30;41.87;;;16.90;;
9898;SDS011;4988;49.238;6.698;2023-02-15T04:48:56;48.33;;;18.33;;
9898;SDS011;4988;49.238;6.698;2023-02-15T04:51:22;45.30;;;17.77;;
9898;SDS011;4988;49.238;6.698;2023-02-15T04:53:47;46.37;;;18.70;;
9898;SDS011;4988;49.238;6.698;2023-02-15T04:56:13;47.40;;;16.97;;
9898;SDS011;4988;49.238;6.698;2023-02-15T04:58:38;42.83;;;18.07;;
9898;SDS011;4988;49.238;6.698;2023-02-15T05:01:06;49.33;;;17.53;;
9898;SDS011;4988;49.238;6.698;2023-02-15T05:03:34;49.97;;;18.25;;
9898;SDS011;4988;49.238;6.698;2023-02-15T05:05:59;44.67;;;17.13;;
9898;SDS011;4988;49.238;6.698;2023-02-15T05:08:25;38.53;;;16.73;;
9898;SDS011;4988;49.238;6.698;2023-02-15T05:10:50;41.03;;;16.37;;
9898;SDS011;4988;49.238;6.698;2023-02-15T05:13:15;43.33;;;17.50;;
9898;SDS011;4988;49.238;6.698;2023-02-15T05:15:41;42.23;;;17.13;;
9898;SDS011;4988;49.238;6.698;2023-02-15T05:18:11;47.53;;;17.50;;
9898;SDS011;4988;49.238;6.698;2023-02-15T05:20:36;39.67;;;16.27;;
9898;SDS011;4988;49.238;6.698;2023-02-15T05:23:01;42.53;;;17.37;;
9898;SDS011;4988;49.238;6.698;2023-02-15T05:25:27;41.07;;;17.23;;
9898;SDS011;4988;49.238;6.698;2023-02-15T05:28:11;42.63;;;16.80;;
9898;SDS011;4988;49.238;6.698;2023-02-15T05:30:49;41.20;;;17.45;;
9898;SDS011;4988;49.238;6.698;2023-02-15T05:33:17;41.20;;;16.95;;
9898;SDS011;4988;49.238;6.698;2023-02-15T05:35:43;39.73;;;16.77;;
9898;SDS011;4988;49.238;6.698;2023-02-15T05:38:08;41.57;;;16.70;;
9898;SDS011;4988;49.238;6.698;2023-02-15T05:40:35;37.90;;;15.90;;
9898;SDS011;4988;49.238;6.698;2023-02-15T05:43:00;37.70;;;16.17;;
9898;SDS011;4988;49.238;6.698;2023-02-15T05:45:26;41.20;;;16.37;;
9898;SDS011;4988;49.238;6.698;2023-02-15T05:47:51;40.07;;;17.43;;
9898;SDS011;4988;49.238;6.698;2023-02-15T05:50:17;42.67;;;17.33;;
9898;SDS011;4988;49.238;6.698;2023-02-15T05:52:43;38.60;;;16.40;;
9898;SDS011;4988;49.238;6.698;2023-02-15T05:55:08;38.50;;;16.13;;
9898;SDS011;4988;49.238;6.698;2023-02-15T05:57:34;36.13;;;16.20;;
9898;SDS011;4988;49.238;6.698;2023-02-15T06:00:00;39.78;;;17.15;;
9898;SDS011;4988;49.238;6.698;2023-02-15T06:02:29;42.60;;;17.48;;
9898;SDS011;4988;49.238;6.698;2023-02-15T06:04:57;42.17;;;15.95;;
9898;SDS011;4988;49.238;6.698;2023-02-15T06:07:23;39.77;;;16.37;;
9898;SDS011;4988;49.238;6.698;2023-02-15T06:09:48;44.33;;;16.50;;
9898;SDS011;4988;49.238;6.698;2023-02-15T06:12:13;41.97;;;16.87;;
9898;SDS011;4988;49.238;6.698;2023-02-15T06:14:39;39.37;;;16.13;;
9898;SDS011;4988;49.238;6.698;2023-02-15T06:17:04;39.90;;;17.53;;
9898;SDS011;4988;49.238;6.698;2023-02-15T06:19:29;41.77;;;16.97;;
9898;SDS011;4988;49.238;6.698;2023-02-15T06:21:55;38.80;;;17.20;;
9898;SDS011;4988;49.238;6.698;2023-02-15T06:24:20;42.87;;;16.53;;
9898;SDS011;4988;49.238;6.698;2023-02-15T06:26:45;40.80;;;16.83;;
9898;SDS011;4988;49.238;6.698;2023-02-15T06:29:10;42.57;;;17.37;;
9898;SDS011;4988;49.238;6.698;2023-02-15T06:31:36;40.33;;;16.33;;
9898;SDS011;4988;49.238;6.698;2023-02-15T06:34:01;41.10;;;15.10;;
9898;SDS011;4988;49.238;6.698;2023-02-15T06:36:27;51.43;;;17.13;;
9898;SDS011;4988;49.238;6.698;2023-02-15T06:38:53;42.50;;;16.70;;
9898;SDS011;4988;49.238;6.698;2023-02-15T06:41:19;42.43;;;17.13;;
9898;SDS011;4988;49.238;6.698;2023-02-15T06:43:45;44.53;;;17.43;;
9898;SDS011;4988;49.238;6.698;2023-02-15T06:46:10;48.53;;;19.03;;
9898;SDS011;4988;49.238;6.698;2023-02-15T06:48:35;46.17;;;16.93;;
9898;SDS011;4988;49.238;6.698;2023-02-15T06:51:01;45.20;;;17.80;;
9898;SDS011;4988;49.238;6.698;2023-02-15T06:53:26;43.33;;;17.00;;
9898;SDS011;4988;49.238;6.698;2023-02-15T06:55:51;47.43;;;18.03;;
9898;SDS011;4988;49.238;6.698;2023-02-15T06:58:17;45.57;;;18.30;;
9898;SDS011;4988;49.238;6.698;2023-02-15T07:00:42;50.33;;;19.10;;
9898;SDS011;4988;49.238;6.698;2023-02-15T07:03:08;48.73;;;19.00;;
9898;SDS011;4988;49.238;6.698;2023-02-15T07:05:33;52.70;;;19.83;;
9898;SDS011;4988;49.238;6.698;2023-02-15T07:07:59;50.50;;;19.07;;
9898;SDS011;4988;49.238;6.698;2023-02-15T07:10:25;44.67;;;18.10;;
9898;SDS011;4988;49.238;6.698;2023-02-15T07:12:51;49.60;;;19.05;;
9898;SDS011;4988;49.238;6.698;2023-02-15T07:15:18;46.07;;;18.27;;
9898;SDS011;4988;49.238;6.698;2023-02-15T07:17:46;49.85;;;18.83;;
9898;SDS011;4988;49.238;6.698;2023-02-15T07:20:16;50.20;;;18.50;;
9898;SDS011;4988;49.238;6.698;2023-02-15T07:22:43;49.15;;;18.15;;
9898;SDS011;4988;49.238;6.698;2023-02-15T07:25:09;51.97;;;19.20;;
9898;SDS011;4988;49.238;6.698;2023-02-15T07:27:35;48.88;;;18.27;;
9898;SDS011;4988;49.238;6.698;2023-02-15T07:30:01;44.63;;;19.03;;
9898;SDS011;4988;49.238;6.698;2023-02-15T07:32:27;45.03;;;17.03;;
9898;SDS011;4988;49.238;6.698;2023-02-15T07:34:54;42.30;;;16.85;;
9898;SDS011;4988;49.238;6.698;2023-02-15T07:37:19;44.10;;;17.30;;
9898;SDS011;4988;49.238;6.698;2023-02-15T07:39:45;44.10;;;17.10;;
9898;SDS011;4988;49.238;6.698;2023-02-15T07:42:10;48.00;;;16.57;;
9898;SDS011;4988;49.238;6.698;2023-02-15T07:44:35;49.57;;;17.60;;
9898;SDS011;4988;49.238;6.698;2023-02-15T07:47:00;43.37;;;17.77;;
9898;SDS011;4988;49.238;6.698;2023-02-15T07:49:26;42.40;;;17.63;;
9898;SDS011;4988;49.238;6.698;2023-02-15T07:51:51;41.50;;;17.57;;
9898;SDS011;4988;49.238;6.698;2023-02-15T07:54:17;42.33;;;17.57;;
9898;SDS011;4988;49.238;6.698;2023-02-15T07:56:42;42.53;;;16.63;;
9898;SDS011;4988;49.238;6.698;2023-02-15T07:59:08;38.70;;;17.10;;
9898;SDS011;4988;49.238;6.698;2023-02-15T08:01:34;39.63;;;16.48;;
9898;SDS011;4988;49.238;6.698;2023-02-15T08:04:01;42.92;;;17.00;;
9898;SDS011;4988;49.238;6.698;2023-02-15T08:06:29;39.45;;;17.10;;
9898;SDS011;4988;49.238;6.698;2023-02-15T08:08:56;45.78;;;17.08;;
9898;SDS011;4988;49.238;6.698;2023-02-15T08:11:22;42.93;;;17.40;;
9898;SDS011;4988;49.238;6.698;2023-02-15T08:16:31;44.65;;;17.52;;
9898;SDS011;4988;49.238;6.698;2023-02-15T08:19:03;43.30;;;16.65;;
9898;SDS011;4988;49.238;6.698;2023-02-15T08:21:34;40.05;;;16.55;;
9898;SDS011;4988;49.238;6.698;2023-02-15T08:24:00;41.78;;;16.67;;
9898;SDS011;4988;49.238;6.698;2023-02-15T08:26:27;38.13;;;14.95;;
9898;SDS011;4988;49.238;6.698;2023-02-15T08:28:54;42.90;;;17.95;;
9898;SDS011;4988;49.238;6.698;2023-02-15T08:31:20;42.37;;;16.47;;
9898;SDS011;4988;49.238;6.698;2023-02-15T08:33:45;40.90;;;15.57;;
9898;SDS011;4988;49.238;6.698;2023-02-15T08:36:13;42.67;;;16.98;;
9898;SDS011;4988;49.238;6.698;2023-02-15T08:38:41;39.95;;;16.45;;
9898;SDS011;4988;49.238;6.698;2023-02-15T08:43:35;45.28;;;16.65;;
9898;SDS011;4988;49.238;6.698;2023-02-15T08:46:00;35.00;;;14.37;;
9898;SDS011;4988;49.238;6.698;2023-02-15T08:48:25;42.97;;;15.73;;
9898;SDS011;4988;49.238;6.698;2023-02-15T08:50:50;38.33;;;15.17;;
9898;SDS011;4988;49.238;6.698;2023-02-15T08:53:16;39.80;;;15.60;;
9898;SDS011;4988;49.238;6.698;2023-02-15T08:55:45;36.95;;;14.13;;
9898;SDS011;4988;49.238;6.698;2023-02-15T08:58:10;41.27;;;17.37;;
9898;SDS011;4988;49.238;6.698;2023-02-15T09:00:35;38.77;;;15.87;;
9898;SDS011;4988;49.238;6.698;2023-02-15T09:03:01;40.13;;;15.60;;
9898;SDS011;4988;49.238;6.698;2023-02-15T09:05:26;39.00;;;15.70;;
9898;SDS011;4988;49.238;6.698;2023-02-15T09:07:51;40.50;;;16.17;;
9898;SDS011;4988;49.238;6.698;2023-02-15T09:10:16;42.57;;;17.77;;
9898;SDS011;4988;49.238;6.698;2023-02-15T09:12:45;38.77;;;16.03;;
9898;SDS011;4988;49.238;6.698;2023-02-15T09:15:10;35.73;;;15.33;;
9898;SDS011;4988;49.238;6.698;2023-02-15T09:17:36;40.63;;;17.90;;
9898;SDS011;4988;49.238;6.698;2023-02-15T09:20:01;37.37;;;15.30;;
9898;SDS011;4988;49.238;6.698;2023-02-15T09:22:26;35.97;;;15.30;;
9898;SDS011;4988;49.238;6.698;2023-02-15T09:24:52;37.40;;;15.03;;
9898;SDS011;4988;49.238;6.698;2023-02-15T09:27:17;36.43;;;14.87;;
9898;SDS011;4988;49.238;6.698;2023-02-15T09:29:43;39.13;;;15.70;;
9898;SDS011;4988;49.238;6.698;2023-02-15T09:32:08;40.10;;;15.37;;
9898;SDS011;4988;49.238;6.698;2023-02-15T09:34:33;38.63;;;15.87;;
9898;SDS011;4988;49.238;6.698;2023-02-15T09:36:59;35.93;;;15.27;;
9898;SDS011;4988;49.238;6.698;2023-02-15T09:39:24;40.13;;;16.27;;
9898;SDS011;4988;49.238;6.698;2023-02-15T09:58:29;37.80;;;15.90;;
9898;SDS011;4988;49.238;6.698;2023-02-15T10:04:07;43.00;;;17.45;;
9898;SDS011;4988;49.238;6.698;2023-02-15T10:15:23;40.97;;;16.63;;
9898;SDS011;4988;49.238;6.698;2023-02-15T10:20:48;42.37;;;16.60;;
9898;SDS011;4988;49.238;6.698;2023-02-15T10:26:32;36.47;;;15.20;;
9898;SDS011;4988;49.238;6.698;2023-02-15T10:29:08;38.23;;;14.97;;
9898;SDS011;4988;49.238;6.698;2023-02-15T10:39:18;36.53;;;15.50;;
9898;SDS011;4988;49.238;6.698;2023-02-15T10:41:47;40.97;;;16.90;;
9898;SDS011;4988;49.238;6.698;2023-02-15T10:47:29;38.43;;;16.30;;
9898;SDS011;4988;49.238;6.698;2023-02-15T10:52:44;35.97;;;15.93;;
9898;SDS011;4988;49.238;6.698;2023-02-15T11:03:56;35.10;;;15.73;;
9898;SDS011;4988;49.238;6.698;2023-02-15T11:06:32;38.67;;;16.27;;
9898;SDS011;4988;49.238;6.698;2023-02-15T11:09:02;38.87;;;15.67;;
9898;SDS011;4988;49.238;6.698;2023-02-15T11:11:34;36.20;;;15.37;;
9898;SDS011;4988;49.238;6.698;2023-02-15T11:14:05;37.80;;;15.90;;
9898;SDS011;4988;49.238;6.698;2023-02-15T11:16:40;35.83;;;15.63;;
9898;SDS011;4988;49.238;6.698;2023-02-15T11:19:11;35.20;;;15.63;;
9898;SDS011;4988;49.238;6.698;2023-02-15T11:21:45;35.87;;;15.53;;
9898;SDS011;4988;49.238;6.698;2023-02-15T11:24:17;34.53;;;15.03;;
9898;SDS011;4988;49.238;6.698;2023-02-15T11:27:02;33.87;;;15.10;;
9898;SDS011;4988;49.238;6.698;2023-02-15T11:29:32;33.73;;;14.77;;
9898;SDS011;4988;49.238;6.698;2023-02-15T11:32:30;37.53;;;15.63;;
9898;SDS011;4988;49.238;6.698;2023-02-15T11:37:40;39.60;;;15.70;;
9898;SDS011;4988;49.238;6.698;2023-02-15T11:42:42;38.57;;;16.30;;
9898;SDS011;4988;49.238;6.698;2023-02-15T11:45:18;36.07;;;15.43;;
9898;SDS011;4988;49.238;6.698;2023-02-15T11:47:50;34.50;;;16.53;;
9898;SDS011;4988;49.238;6.698;2023-02-15T11:50:16;37.60;;;16.13;;
9898;SDS011;4988;49.238;6.698;2023-02-15T11:52:47;32.43;;;15.83;;
9898;SDS011;4988;49.238;6.698;2023-02-15T11:55:14;35.60;;;16.77;;
9898;SDS011;4988;49.238;6.698;2023-02-15T11:57:46;33.07;;;15.23;;
9898;SDS011;4988;49.238;6.698;2023-02-15T12:00:45;35.07;;;17.07;;
9898;SDS011;4988;49.238;6.698;2023-02-15T12:03:14;36.20;;;16.23;;
9898;SDS011;4988;49.238;6.698;2023-02-15T12:05:46;43.17;;;17.33;;
9898;SDS011;4988;49.238;6.698;2023-02-15T12:08:24;36.20;;;16.47;;
9898;SDS011;4988;49.238;6.698;2023-02-15T12:11:09;36.50;;;16.93;;
9898;SDS011;4988;49.238;6.698;2023-02-15T12:13:53;40.20;;;18.03;;
9898;SDS011;4988;49.238;6.698;2023-02-15T12:16:20;40.00;;;18.00;;
9898;SDS011;4988;49.238;6.698;2023-02-15T12:18:46;41.37;;;18.93;;
9898;SDS011;4988;49.238;6.698;2023-02-15T12:21:15;41.37;;;18.30;;
9898;SDS011;4988;49.238;6.698;2023-02-15T12:23:55;36.37;;;17.57;;
9898;SDS011;4988;49.238;6.698;2023-02-15T12:26:24;45.07;;;20.17;;
9898;SDS011;4988;49.238;6.698;2023-02-15T12:28:51;37.53;;;18.13;;
9898;SDS011;4988;49.238;6.698;2023-02-15T12:31:23;41.77;;;18.70;;
9898;SDS011;4988;49.238;6.698;2023-02-15T12:33:55;37.67;;;17.57;;
9898;SDS011;4988;49.238;6.698;2023-02-15T12:36:28;41.17;;;18.60;;
9898;SDS011;4988;49.238;6.698;2023-02-15T12:41:37;42.13;;;20.07;;
9898;SDS011;4988;49.238;6.698;2023-02-15T12:44:19;38.47;;;18.40;;
9898;SDS011;4988;49.238;6.698;2023-02-15T12:46:55;40.23;;;17.50;;
9898;SDS011;4988;49.238;6.698;2023-02-15T12:49:21;40.10;;;17.93;;
9898;SDS011;4988;49.238;6.698;2023-02-15T12:51:50;39.83;;;19.10;;
9898;SDS011;4988;49.238;6.698;2023-02-15T12:57:12;38.20;;;17.90;;
9898;SDS011;4988;49.238;6.698;2023-02-15T12:59:47;37.70;;;18.00;;
9898;SDS011;4988;49.238;6.698;2023-02-15T13:03:02;39.23;;;17.63;;
9898;SDS011;4988;49.238;6.698;2023-02-15T13:05:28;35.57;;;17.97;;
9898;SDS011;4988;49.238;6.698;2023-02-15T13:07:54;35.83;;;17.13;;
9898;SDS011;4988;49.238;6.698;2023-02-15T13:10:25;32.70;;;16.60;;
9898;SDS011;4988;49.238;6.698;2023-02-15T13:12:56;36.50;;;16.37;;
9898;SDS011;4988;49.238;6.698;2023-02-15T13:15:27;33.03;;;16.57;;
9898;SDS011;4988;49.238;6.698;2023-02-15T13:17:59;34.83;;;16.53;;
9898;SDS011;4988;49.238;6.698;2023-02-15T13:20:26;34.73;;;16.73;;
9898;SDS011;4988;49.238;6.698;2023-02-15T13:23:38;34.10;;;16.63;;
9898;SDS011;4988;49.238;6.698;2023-02-15T13:25:49;34.23;;;16.70;;
9898;SDS011;4988;49.238;6.698;2023-02-15T13:28:16;36.20;;;17.40;;
9898;SDS011;4988;49.238;6.698;2023-02-15T13:30:48;32.93;;;16.50;;
9898;SDS011;4988;49.238;6.698;2023-02-15T13:38:45;34.33;;;16.30;;
9898;SDS011;4988;49.238;6.698;2023-02-15T13:41:29;33.67;;;16.50;;
9898;SDS011;4988;49.238;6.698;2023-02-15T13:44:03;36.67;;;16.40;;
9898;SDS011;4988;49.238;6.698;2023-02-15T13:46:44;32.97;;;16.00;;
9898;SDS011;4988;49.238;6.698;2023-02-15T13:52:20;34.20;;;16.93;;
9898;SDS011;4988;49.238;6.698;2023-02-15T14:10:59;38.10;;;17.63;;
9898;SDS011;4988;49.238;6.698;2023-02-15T14:14:06;36.53;;;16.77;;
9898;SDS011;4988;49.238;6.698;2023-02-15T14:19:27;34.67;;;16.80;;
9898;SDS011;4988;49.238;6.698;2023-02-15T14:22:02;30.87;;;15.30;;
9898;SDS011;4988;49.238;6.698;2023-02-15T14:24:54;33.17;;;16.20;;
9898;SDS011;4988;49.238;6.698;2023-02-15T14:32:41;29.30;;;15.67;;
9898;SDS011;4988;49.238;6.698;2023-02-15T14:35:13;30.20;;;15.23;;
9898;SDS011;4988;49.238;6.698;2023-02-15T14:40:34;33.50;;;16.10;;
9898;SDS011;4988;49.238;6.698;2023-02-15T14:46:14;31.20;;;16.27;;
9898;SDS011;4988;49.238;6.698;2023-02-15T14:48:45;35.80;;;16.17;;
9898;SDS011;4988;49.238;6.698;2023-02-15T14:54:57;33.20;;;16.10;;
9898;SDS011;4988;49.238;6.698;2023-02-15T15:00:28;33.20;;;16.03;;
9898;SDS011;4988;49.238;6.698;2023-02-15T15:02:59;34.97;;;16.67;;
9898;SDS011;4988;49.238;6.698;2023-02-15T15:05:32;33.77;;;16.67;;
9898;SDS011;4988;49.238;6.698;2023-02-15T15:08:00;31.97;;;16.57;;
9898;SDS011;4988;49.238;6.698;2023-02-15T15:22:22;32.83;;;16.23;;
9898;SDS011;4988;49.238;6.698;2023-02-15T15:35:33;32.30;;;16.57;;
9898;SDS011;4988;49.238;6.698;2023-02-15T15:48:44;33.80;;;15.97;;
9898;SDS011;4988;49.238;6.698;2023-02-15T15:51:20;33.73;;;16.20;;
9898;SDS011;4988;49.238;6.698;2023-02-15T15:53:51;32.63;;;16.37;;
9898;SDS011;4988;49.238;6.698;2023-02-15T15:56:21;31.57;;;15.97;;
9898;SDS011;4988;49.238;6.698;2023-02-15T15:58:56;38.90;;;16.83;;
9898;SDS011;4988;49.238;6.698;2023-02-15T16:01:35;35.57;;;17.30;;
9898;SDS011;4988;49.238;6.698;2023-02-15T16:04:10;35.80;;;17.77;;
9898;SDS011;4988;49.238;6.698;2023-02-15T16:06:40;36.37;;;17.97;;
9898;SDS011;4988;49.238;6.698;2023-02-15T16:09:12;35.60;;;17.60;;
9898;SDS011;4988;49.238;6.698;2023-02-15T16:11:43;34.67;;;18.03;;
9898;SDS011;4988;49.238;6.698;2023-02-15T16:14:16;36.13;;;17.10;;
9898;SDS011;4988;49.238;6.698;2023-02-15T16:16:51;30.77;;;15.70;;
9898;SDS011;4988;49.238;6.698;2023-02-15T16:19:24;30.27;;;15.87;;
9898;SDS011;4988;49.238;6.698;2023-02-15T16:21:57;36.17;;;16.33;;
9898;SDS011;4988;49.238;6.698;2023-02-15T16:29:44;31.37;;;16.40;;
9898;SDS011;4988;49.238;6.698;2023-02-15T16:34:54;34.37;;;16.93;;
9898;SDS011;4988;49.238;6.698;2023-02-15T16:37:25;32.50;;;16.70;;
9898;SDS011;4988;49.238;6.698;2023-02-15T16:39:52;37.03;;;16.80;;
9898;SDS011;4988;49.238;6.698;2023-02-15T16:42:20;34.37;;;16.73;;
9898;SDS011;4988;49.238;6.698;2023-02-15T16:44:47;34.83;;;16.23;;
9898;SDS011;4988;49.238;6.698;2023-02-15T16:47:24;35.33;;;16.53;;
9898;SDS011;4988;49.238;6.698;2023-02-15T16:49:53;32.03;;;16.43;;
9898;SDS011;4988;49.238;6.698;2023-02-15T16:52:23;37.30;;;17.43;;
9898;SDS011;4988;49.238;6.698;2023-02-15T16:55:03;34.40;;;16.93;;
9898;SDS011;4988;49.238;6.698;2023-02-15T16:57:32;37.80;;;16.90;;
9898;SDS011;4988;49.238;6.698;2023-02-15T17:00:04;31.53;;;16.57;;
9898;SDS011;4988;49.238;6.698;2023-02-15T17:02:42;33.43;;;16.27;;
9898;SDS011;4988;49.238;6.698;2023-02-15T17:05:30;37.37;;;16.57;;
9898;SDS011;4988;49.238;6.698;2023-02-15T17:10:45;31.77;;;16.13;;
9898;SDS011;4988;49.238;6.698;2023-02-15T17:13:27;32.10;;;16.03;;
9898;SDS011;4988;49.238;6.698;2023-02-15T17:18:31;30.67;;;15.73;;
9898;SDS011;4988;49.238;6.698;2023-02-15T17:21:00;36.50;;;17.47;;
9898;SDS011;4988;49.238;6.698;2023-02-15T17:23:42;37.50;;;16.90;;
9898;SDS011;4988;49.238;6.698;2023-02-15T17:26:11;33.03;;;16.57;;
9898;SDS011;4988;49.238;6.698;2023-02-15T17:28:40;35.70;;;16.83;;
9898;SDS011;4988;49.238;6.698;2023-02-15T17:31:12;37.30;;;17.33;;
9898;SDS011;4988;49.238;6.698;2023-02-15T17:33:41;36.97;;;16.73;;
9898;SDS011;4988;49.238;6.698;2023-02-15T17:38:35;37.67;;;18.17;;
9898;SDS011;4988;49.238;6.698;2023-02-15T17:41:08;37.00;;;17.83;;
9898;SDS011;4988;49.238;6.698;2023-02-15T17:43:41;36.37;;;17.57;;
9898;SDS011;4988;49.238;6.698;2023-02-15T17:46:10;32.43;;;16.77;;
9898;SDS011;4988;49.238;6.698;2023-02-15T17:48:39;35.17;;;16.20;;
9898;SDS011;4988;49.238;6.698;2023-02-15T17:51:06;39.80;;;16.10;;
9898;SDS011;4988;49.238;6.698;2023-02-15T17:53:36;33.73;;;16.20;;
9898;SDS011;4988;49.238;6.698;2023-02-15T17:56:02;37.63;;;15.73;;
9898;SDS011;4988;49.238;6.698;2023-02-15T17:58:34;28.90;;;14.63;;
9898;SDS011;4988;49.238;6.698;2023-02-15T18:01:05;31.60;;;14.97;;
9898;SDS011;4988;49.238;6.698;2023-02-15T18:03:53;40.80;;;17.43;;
9898;SDS011;4988;49.238;6.698;2023-02-15T18:06:39;30.67;;;14.87;;
9898;SDS011;4988;49.238;6.698;2023-02-15T18:09:25;33.17;;;15.60;;